createdAt,value
2022-12-19T00:01:09.282Z,29.15
2022-12-19T00:04:11.498Z,28.40
2022-12-19T00:07:13.563Z,27.85
2022-12-19T00:10:15.694Z,30.17
2022-12-19T00:13:17.834Z,29.25
2022-12-19T00:16:20.539Z,30.30
2022-12-19T00:19:22.567Z,31.10
2022-12-19T00:22:24.686Z,28.40
2022-12-19T00:25:26.614Z,28.80
2022-12-19T00:28:29.908Z,27.35
2022-12-19T00:31:33.303Z,27.05
2022-12-19T00:34:35.375Z,28.60
2022-12-19T00:37:37.472Z,31.20
2022-12-19T00:40:42.581Z,29.80
2022-12-19T00:43:44.649Z,28.98
2022-12-19T00:46:52.469Z,29.02
2022-12-19T00:49:55.049Z,30.97
2022-12-19T00:52:56.987Z,29.48
2022-12-19T00:56:05.663Z,28.65
2022-12-19T00:59:09.209Z,28.13
2022-12-19T01:02:11.709Z,27.50
2022-12-19T01:05:14.307Z,29.90
2022-12-19T01:08:16.407Z,27.45
2022-12-19T01:11:40.234Z,27.80
2022-12-19T01:14:42.226Z,27.15
2022-12-19T01:17:45.162Z,28.27
2022-12-19T01:20:48.176Z,28.27
2022-12-19T01:23:57.156Z,26.73
2022-12-19T01:26:59.281Z,27.20
2022-12-19T01:30:02.139Z,25.38
2022-12-19T01:33:04.237Z,25.77
2022-12-19T01:36:07.874Z,25.30
2022-12-19T01:39:09.904Z,25.90
2022-12-19T01:42:23.080Z,24.60
2022-12-19T01:45:33.473Z,26.38
2022-12-19T01:48:40.307Z,25.33
2022-12-19T01:51:44.213Z,24.30
2022-12-19T01:54:46.544Z,25.00
2022-12-19T01:57:48.474Z,26.13
2022-12-19T02:00:50.731Z,25.25
2022-12-19T02:03:52.844Z,24.17
2022-12-19T02:06:55.160Z,25.20
2022-12-19T02:09:59.680Z,24.77
2022-12-19T02:13:09.506Z,25.37
2022-12-19T02:16:30.960Z,24.33
2022-12-19T02:19:53.187Z,25.08
2022-12-19T02:23:01.468Z,24.37
2022-12-19T02:26:25.187Z,24.75
2022-12-19T02:29:45.791Z,26.58
2022-12-19T02:32:48.901Z,27.65
2022-12-19T02:35:51.984Z,28.10
2022-12-19T02:38:56.885Z,26.88
2022-12-19T02:41:59.509Z,24.73
2022-12-19T02:45:02.978Z,26.37
2022-12-19T02:48:08.804Z,21.67
2022-12-19T02:51:12.480Z,24.58
2022-12-19T02:54:14.870Z,25.93
2022-12-19T02:57:23.188Z,27.38
2022-12-19T03:00:25.954Z,26.05
2022-12-19T03:03:49.467Z,26.50
2022-12-19T03:07:12.865Z,24.83
2022-12-19T03:10:19.224Z,24.00
2022-12-19T03:13:25.172Z,23.92
2022-12-19T03:16:27.251Z,26.90
2022-12-19T03:19:29.758Z,26.50
2022-12-19T03:22:32.117Z,26.08
2022-12-19T03:25:34.502Z,27.03
2022-12-19T03:28:41.177Z,25.77
2022-12-19T03:31:44.038Z,28.90
2022-12-19T03:34:53.166Z,28.33
2022-12-19T03:37:56.240Z,28.77
2022-12-19T03:40:58.191Z,26.48
2022-12-19T03:44:00.140Z,27.65
2022-12-19T03:47:19.489Z,28.50
2022-12-19T03:50:21.694Z,27.48
2022-12-19T03:53:26.024Z,28.17
2022-12-19T03:56:31.674Z,28.10
2022-12-19T03:59:44.157Z,26.38
2022-12-19T04:02:47.887Z,27.50
2022-12-19T04:05:49.871Z,28.10
2022-12-19T04:08:51.833Z,27.63
2022-12-19T04:11:54.497Z,28.42
2022-12-19T04:14:56.680Z,28.38
2022-12-19T04:17:58.775Z,29.30
2022-12-19T04:21:08.192Z,27.27
2022-12-19T04:24:12.292Z,28.40
2022-12-19T04:27:15.008Z,26.10
2022-12-19T04:30:17.776Z,28.00
2022-12-19T04:33:19.941Z,28.45
2022-12-19T04:36:22.035Z,28.88
2022-12-19T04:39:26.897Z,27.52
2022-12-19T04:42:29.336Z,27.73
2022-12-19T04:45:31.479Z,27.63
2022-12-19T04:48:35.411Z,26.30
2022-12-19T04:51:37.450Z,28.17
2022-12-19T04:54:39.600Z,26.33
2022-12-19T04:57:41.548Z,25.97
2022-12-19T05:00:43.554Z,26.67
2022-12-19T05:03:48.883Z,25.42
2022-12-19T05:06:53.390Z,28.48
2022-12-19T05:09:55.567Z,27.35
2022-12-19T05:12:57.660Z,29.23
2022-12-19T05:16:00.803Z,27.33
2022-12-19T05:19:03.065Z,29.27
2022-12-19T05:22:05.471Z,26.83
2022-12-19T05:25:09.862Z,40.67
2022-12-19T05:28:12.743Z,28.47
2022-12-19T05:31:16.636Z,27.52
2022-12-19T05:34:18.779Z,29.17
2022-12-19T05:37:21.199Z,27.13
2022-12-19T05:40:29.402Z,28.63
2022-12-19T05:43:33.157Z,24.83
2022-12-19T05:46:35.799Z,31.92
2022-12-19T05:49:40.508Z,27.20
2022-12-19T05:52:42.661Z,29.80
2022-12-19T05:55:45.341Z,28.50
2022-12-19T05:58:47.444Z,26.10
2022-12-19T06:01:49.532Z,26.05
2022-12-19T06:04:51.734Z,26.13
2022-12-19T06:07:54.514Z,26.10
2022-12-19T06:10:58.396Z,23.73
2022-12-19T06:14:00.692Z,24.25
2022-12-19T06:17:03.499Z,23.15
2022-12-19T06:20:06.847Z,25.00
2022-12-19T06:23:09.353Z,24.77
2022-12-19T06:26:18.651Z,93.63
2022-12-19T06:29:21.484Z,57.40
2022-12-19T06:32:23.474Z,104.15
2022-12-19T06:35:26.133Z,29.20
2022-12-19T06:38:28.783Z,22.73
2022-12-19T06:41:49.655Z,22.58
2022-12-19T06:44:52.030Z,22.30
2022-12-19T06:47:55.534Z,24.33
2022-12-19T06:50:58.287Z,21.63
2022-12-19T06:54:00.807Z,21.80
2022-12-19T06:57:03.698Z,21.25
2022-12-19T07:00:07.026Z,21.10
2022-12-19T07:03:10.048Z,23.88
2022-12-19T07:06:12.311Z,21.08
2022-12-19T07:09:14.771Z,20.73
2022-12-19T07:12:17.341Z,21.67
2022-12-19T07:15:19.331Z,21.25
2022-12-19T07:18:21.513Z,20.05
2022-12-19T07:21:23.980Z,20.63
2022-12-19T07:24:26.151Z,20.42
2022-12-19T07:27:35.216Z,39.35
2022-12-19T07:30:37.769Z,23.37
2022-12-19T07:33:40.126Z,20.77
2022-12-19T07:36:42.219Z,33.72
2022-12-19T07:39:44.761Z,22.35
2022-12-19T07:42:46.859Z,18.33
2022-12-19T07:45:49.709Z,16.92
2022-12-19T07:48:51.947Z,18.75
2022-12-19T07:51:54.049Z,15.93
2022-12-19T07:54:56.148Z,15.27
2022-12-19T07:57:58.711Z,15.95
2022-12-19T08:01:01.598Z,14.30
2022-12-19T08:04:03.695Z,15.13
2022-12-19T08:07:05.761Z,14.35
2022-12-19T08:10:08.621Z,13.77
2022-12-19T08:13:10.762Z,51.05
2022-12-19T08:16:12.899Z,17.17
2022-12-19T08:19:14.986Z,15.48
2022-12-19T08:22:17.113Z,15.27
2022-12-19T08:25:19.238Z,14.93
2022-12-19T08:28:21.256Z,15.35
2022-12-19T08:31:25.061Z,13.53
2022-12-19T08:34:27.948Z,14.32
2022-12-19T08:37:30.325Z,14.90
2022-12-19T08:40:32.779Z,15.60
2022-12-19T08:43:34.945Z,13.50
2022-12-19T08:46:37.512Z,14.20
2022-12-19T08:49:40.443Z,14.05
2022-12-19T08:52:42.670Z,13.23
2022-12-19T08:55:45.279Z,15.10
2022-12-19T08:58:47.801Z,14.63
2022-12-19T09:01:50.344Z,14.37
2022-12-19T09:05:58.654Z,14.30
2022-12-19T09:08:15.164Z,14.63
2022-12-19T09:11:17.622Z,15.43
2022-12-19T09:14:21.782Z,15.95
2022-12-19T09:17:24.095Z,15.70
2022-12-19T09:20:26.969Z,15.38
2022-12-19T09:23:29.443Z,14.77
2022-12-19T09:26:33.668Z,14.82
2022-12-19T09:29:36.523Z,14.07
2022-12-19T09:32:43.292Z,15.33
2022-12-19T09:35:56.807Z,15.48
2022-12-19T09:39:00.159Z,15.48
2022-12-19T09:42:20.878Z,15.02
2022-12-19T09:45:41.243Z,13.73
2022-12-19T09:49:04.161Z,17.58
2022-12-19T09:52:25.815Z,13.85
2022-12-19T09:55:33.874Z,12.87
2022-12-19T09:58:37.893Z,15.80
2022-12-19T10:01:47.611Z,13.73
2022-12-19T10:05:22.413Z,15.70
2022-12-19T10:08:34.104Z,13.45
2022-12-19T10:12:42.398Z,16.00
2022-12-19T10:15:20.839Z,13.30
2022-12-19T10:18:51.096Z,15.98
2022-12-19T10:22:17.589Z,12.68
2022-12-19T10:25:34.866Z,14.07
2022-12-19T10:28:47.479Z,12.73
2022-12-19T10:32:00.516Z,13.00
2022-12-19T10:35:02.862Z,12.93
2022-12-19T10:38:11.311Z,12.73
2022-12-19T10:41:16.360Z,13.30
2022-12-19T10:44:20.211Z,15.50
2022-12-19T10:47:22.466Z,13.55
2022-12-19T10:50:25.510Z,18.10
2022-12-19T10:53:29.218Z,16.42
2022-12-19T10:56:37.541Z,15.60
2022-12-19T10:59:40.197Z,16.30
2022-12-19T11:02:46.540Z,14.00
2022-12-19T11:05:57.828Z,14.27
2022-12-19T11:09:19.262Z,12.57
2022-12-19T11:16:18.270Z,14.20
2022-12-19T11:20:10.099Z,13.80
2022-12-19T11:29:24.991Z,14.27
2022-12-19T11:29:31.407Z,13.95
2022-12-19T11:29:39.998Z,12.93
2022-12-19T11:33:12.338Z,14.67
2022-12-19T11:36:34.706Z,19.67
2022-12-19T11:39:40.671Z,14.23
2022-12-19T11:43:41.477Z,13.97
2022-12-19T11:46:22.109Z,16.60
2022-12-19T11:49:30.269Z,13.50
2022-12-19T11:53:03.476Z,13.45
2022-12-19T11:56:15.978Z,13.38
2022-12-19T11:59:20.918Z,15.00
2022-12-19T12:02:41.759Z,14.07
2022-12-19T12:05:47.588Z,13.10
2022-12-19T12:11:41.485Z,12.65
2022-12-19T12:19:56.307Z,15.15
2022-12-19T12:31:02.484Z,13.97
2022-12-19T12:31:04.117Z,15.88
2022-12-19T12:31:51.724Z,14.32
2022-12-19T12:31:57.030Z,14.00
2022-12-19T12:35:17.417Z,14.57
2022-12-19T12:35:32.826Z,17.95
2022-12-19T12:40:36.652Z,15.60
2022-12-19T12:44:04.999Z,15.45
2022-12-19T12:47:13.294Z,15.85
2022-12-19T12:50:17.202Z,14.87
2022-12-19T12:53:19.970Z,15.45
2022-12-19T12:56:22.042Z,12.93
2022-12-19T12:59:26.155Z,14.50
2022-12-19T13:02:32.885Z,15.45
2022-12-19T13:05:54.855Z,16.98
2022-12-19T13:09:02.019Z,16.50
2022-12-19T13:12:33.025Z,18.50
2022-12-19T13:15:37.608Z,15.65
2022-12-19T13:18:41.806Z,15.63
2022-12-19T13:22:02.587Z,15.90
2022-12-19T13:25:24.531Z,15.13
2022-12-19T13:28:27.429Z,15.52
2022-12-19T13:31:31.614Z,16.30
2022-12-19T13:34:35.299Z,15.55
2022-12-19T13:39:50.343Z,16.63
2022-12-19T13:41:01.174Z,19.38
2022-12-19T13:44:03.882Z,16.43
2022-12-19T13:47:21.905Z,16.60
2022-12-19T13:50:26.647Z,16.38
2022-12-19T13:53:28.907Z,17.33
2022-12-19T13:56:31.114Z,16.30
2022-12-19T13:59:35.342Z,16.65
2022-12-19T14:02:47.007Z,16.52
2022-12-19T14:06:15.965Z,15.30
2022-12-19T14:11:30.369Z,15.70
2022-12-19T14:14:01.248Z,15.10
2022-12-19T14:16:43.523Z,14.10
2022-12-19T14:19:47.807Z,25.10
2022-12-19T14:22:55.509Z,16.05
2022-12-19T14:28:18.527Z,16.70
2022-12-19T14:29:32.137Z,16.70
2022-12-19T14:33:43.499Z,15.85
2022-12-19T14:36:14.751Z,15.45
2022-12-19T14:39:28.881Z,14.93
2022-12-19T14:43:57.937Z,17.05
2022-12-19T14:54:01.856Z,17.13
2022-12-19T14:54:10.365Z,19.77
2022-12-19T14:54:32.372Z,17.70
2022-12-19T14:56:59.636Z,16.15
2022-12-19T15:00:02.662Z,18.10
2022-12-19T15:03:08.177Z,17.40
2022-12-19T15:07:05.618Z,18.58
2022-12-19T15:11:06.266Z,18.75
2022-12-19T15:14:53.787Z,16.70
2022-12-19T15:16:42.383Z,16.50
2022-12-19T15:19:44.855Z,17.83
2022-12-19T15:22:47.299Z,17.13
2022-12-19T15:26:06.593Z,19.85
2022-12-19T15:29:12.927Z,19.55
2022-12-19T15:32:18.077Z,20.63
2022-12-19T15:35:20.313Z,20.30
2022-12-19T15:38:22.380Z,19.38
2022-12-19T15:41:24.744Z,20.27
2022-12-19T15:44:36.712Z,17.05
2022-12-19T15:47:38.800Z,18.10
2022-12-19T15:50:42.142Z,18.65
2022-12-19T15:53:44.774Z,15.37
2022-12-19T15:56:47.623Z,18.90
2022-12-19T15:59:50.236Z,18.77
2022-12-19T16:06:15.223Z,18.13
2022-12-19T16:09:21.445Z,19.02
2022-12-19T16:12:24.512Z,20.02
2022-12-19T16:15:30.753Z,21.23
2022-12-19T16:18:33.960Z,21.42
2022-12-19T16:21:36.207Z,25.33
2022-12-19T16:24:38.276Z,20.23
2022-12-19T16:27:40.891Z,20.77
2022-12-19T16:30:44.536Z,19.05
2022-12-19T16:33:46.575Z,20.37
2022-12-19T16:36:48.941Z,20.92
2022-12-19T16:39:50.957Z,20.55
2022-12-19T16:42:57.469Z,19.40
2022-12-19T16:46:01.390Z,19.48
2022-12-19T16:49:05.805Z,20.27
2022-12-19T16:52:08.219Z,20.50
2022-12-19T16:55:14.096Z,20.37
2022-12-19T16:58:23.924Z,16.90
2022-12-19T17:01:26.512Z,19.08
2022-12-19T17:04:29.376Z,18.07
2022-12-19T17:07:31.449Z,18.40
2022-12-19T17:10:33.709Z,21.02
2022-12-19T17:13:36.213Z,22.40
2022-12-19T17:16:39.556Z,17.30
2022-12-19T17:19:47.679Z,20.13
2022-12-19T17:22:53.015Z,21.55
2022-12-19T17:25:55.647Z,18.77
2022-12-19T17:28:57.847Z,18.02
2022-12-19T17:31:59.926Z,19.42
2022-12-19T17:35:02.061Z,20.20
2022-12-19T17:38:05.394Z,18.45
2022-12-19T17:41:11.993Z,18.65
2022-12-19T17:44:14.112Z,19.10
2022-12-19T17:47:16.483Z,20.50
2022-12-19T17:50:26.687Z,19.20
2022-12-19T17:53:29.037Z,19.95
2022-12-19T17:56:31.361Z,17.77
2022-12-19T17:59:33.671Z,20.25
2022-12-19T18:02:36.325Z,22.88
2022-12-19T18:05:38.895Z,19.33
2022-12-19T18:08:41.441Z,17.85
2022-12-19T18:11:43.685Z,20.05
2022-12-19T18:14:52.171Z,20.08
2022-12-19T18:17:55.117Z,22.30
2022-12-19T18:20:58.110Z,19.02
2022-12-19T18:24:00.115Z,20.00
2022-12-19T18:27:02.480Z,19.27
2022-12-19T18:30:04.852Z,21.60
2022-12-19T18:33:07.930Z,19.90
2022-12-19T18:36:14.317Z,21.13
2022-12-19T18:39:25.675Z,21.27
2022-12-19T18:42:33.893Z,19.80
2022-12-19T18:45:40.038Z,20.50
2022-12-19T18:48:46.835Z,21.15
2022-12-19T18:51:50.175Z,22.20
2022-12-19T18:54:52.867Z,20.15
2022-12-19T18:57:56.878Z,19.77
2022-12-19T19:00:59.715Z,20.67
2022-12-19T19:04:02.137Z,20.83
2022-12-19T19:07:04.213Z,21.97
2022-12-19T19:10:25.145Z,22.13
2022-12-19T19:13:34.457Z,19.27
2022-12-19T19:16:36.734Z,24.13
2022-12-19T19:19:39.228Z,19.67
2022-12-19T19:22:41.691Z,23.08
2022-12-19T19:25:44.728Z,20.92
2022-12-19T19:28:52.013Z,20.93
2022-12-19T19:31:55.256Z,20.85
2022-12-19T19:34:57.688Z,19.60
2022-12-19T19:38:00.347Z,20.87
2022-12-19T19:41:02.300Z,20.85
2022-12-19T19:44:04.439Z,20.38
2022-12-19T19:47:06.397Z,19.63
2022-12-19T19:50:09.308Z,19.83
2022-12-19T19:53:11.712Z,20.70
2022-12-19T19:56:13.909Z,21.77
2022-12-19T19:59:15.866Z,20.77
2022-12-19T20:02:18.791Z,21.67
2022-12-19T20:05:20.872Z,19.42
2022-12-19T20:08:22.830Z,20.33
2022-12-19T20:11:25.200Z,21.35
2022-12-19T20:14:27.821Z,19.60
2022-12-19T20:17:29.890Z,20.98
2022-12-19T20:20:33.076Z,20.88
2022-12-19T20:23:35.008Z,24.27
2022-12-19T20:26:37.516Z,21.38
2022-12-19T20:29:39.688Z,18.93
2022-12-19T20:32:42.009Z,22.30
2022-12-19T20:35:44.465Z,20.48
2022-12-19T20:38:46.923Z,22.50
2022-12-19T20:41:49.662Z,20.33
2022-12-19T20:44:52.077Z,20.58
2022-12-19T20:47:54.025Z,20.13
2022-12-19T20:50:56.806Z,21.02
2022-12-19T20:53:59.172Z,23.10
2022-12-19T20:57:01.204Z,21.17
2022-12-19T21:00:04.261Z,20.13
2022-12-19T21:06:28.353Z,23.02
2022-12-19T21:09:31.001Z,21.50
2022-12-19T21:12:33.482Z,23.77
2022-12-19T21:15:35.494Z,23.83
2022-12-19T21:18:38.382Z,23.75
2022-12-19T21:21:40.715Z,22.98
2022-12-19T21:24:42.717Z,23.70
2022-12-19T21:27:46.717Z,20.27
2022-12-19T21:30:54.887Z,22.67
2022-12-19T21:33:58.385Z,30.75
2022-12-19T21:37:00.349Z,26.40
2022-12-19T21:40:03.257Z,22.23
2022-12-19T21:43:11.427Z,22.73
2022-12-19T21:46:15.171Z,21.90
2022-12-19T21:49:17.491Z,21.77
2022-12-19T21:52:19.456Z,19.83
2022-12-19T21:55:21.499Z,23.77
2022-12-19T21:58:24.055Z,22.73
2022-12-19T22:01:26.595Z,23.70
2022-12-19T22:04:29.111Z,22.25
2022-12-19T22:07:31.223Z,24.58
2022-12-19T22:10:33.794Z,22.57
2022-12-19T22:13:36.105Z,21.88
2022-12-19T22:16:38.769Z,23.00
2022-12-19T22:19:41.027Z,24.15
2022-12-19T22:22:43.271Z,23.67
2022-12-19T22:25:45.324Z,26.25
2022-12-19T22:28:48.390Z,23.10
2022-12-19T22:31:50.961Z,23.30
2022-12-19T22:34:53.172Z,23.80
2022-12-19T22:37:55.243Z,27.90
2022-12-19T22:40:57.246Z,23.60
2022-12-19T22:43:59.350Z,25.73
2022-12-19T22:47:01.353Z,25.45
2022-12-19T22:50:03.437Z,25.27
2022-12-19T22:53:09.495Z,25.92
2022-12-19T22:56:15.954Z,24.95
2022-12-19T22:59:18.264Z,26.08
2022-12-19T23:02:20.951Z,23.63
2022-12-19T23:05:23.141Z,24.42
2022-12-19T23:08:25.586Z,23.98
2022-12-19T23:11:31.803Z,23.63
2022-12-19T23:14:33.807Z,24.80
2022-12-19T23:17:35.827Z,24.85
2022-12-19T23:20:37.831Z,23.55
2022-12-19T23:23:42.053Z,24.33
2022-12-19T23:26:44.711Z,23.42
2022-12-19T23:29:47.266Z,24.23
2022-12-19T23:32:51.150Z,23.50
2022-12-19T23:35:53.275Z,25.00
2022-12-19T23:38:55.720Z,23.27
2022-12-19T23:41:57.705Z,24.60
2022-12-19T23:45:00.493Z,22.52
2022-12-19T23:48:02.665Z,23.50
2022-12-19T23:51:06.061Z,23.63
2022-12-19T23:54:08.916Z,24.08
2022-12-19T23:57:11.347Z,24.23
